sensor_id;sensor_type;location;lat;lon;timestamp;temperature;humidity
17715;DHT22;8977;50.902;4.314;2023-07-02T00:01:29;20.70;99.90
17715;DHT22;8977;50.902;4.314;2023-07-02T00:03:56;20.70;99.90
17715;DHT22;8977;50.902;4.314;2023-07-02T00:06:23;20.60;99.90
17715;DHT22;8977;50.902;4.314;2023-07-02T00:08:50;20.60;99.90
17715;DHT22;8977;50.902;4.314;2023-07-02T00:11:19;20.60;99.90
17715;DHT22;8977;50.902;4.314;2023-07-02T00:13:45;20.70;99.90
17715;DHT22;8977;50.902;4.314;2023-07-02T00:16:12;20.60;99.90
17715;DHT22;8977;50.902;4.314;2023-07-02T00:18:39;20.60;99.90
17715;DHT22;8977;50.902;4.314;2023-07-02T00:21:06;20.60;99.90
17715;DHT22;8977;50.902;4.314;2023-07-02T00:23:33;20.50;99.90
17715;DHT22;8977;50.902;4.314;2023-07-02T00:26:00;20.50;99.90
17715;DHT22;8977;50.902;4.314;2023-07-02T00:28:28;20.60;99.90
17715;DHT22;8977;50.902;4.314;2023-07-02T00:30:55;20.60;99.90
17715;DHT22;8977;50.902;4.314;2023-07-02T00:33:22;20.60;99.90
17715;DHT22;8977;50.902;4.314;2023-07-02T00:35:49;20.50;99.90
17715;DHT22;8977;50.902;4.314;2023-07-02T00:38:16;20.50;99.90
17715;DHT22;8977;50.902;4.314;2023-07-02T00:40:43;20.40;99.90
17715;DHT22;8977;50.902;4.314;2023-07-02T00:43:10;20.40;99.90
17715;DHT22;8977;50.902;4.314;2023-07-02T00:45:40;20.40;99.90
17715;DHT22;8977;50.902;4.314;2023-07-02T00:48:07;20.40;99.90
17715;DHT22;8977;50.902;4.314;2023-07-02T00:50:33;20.40;99.90
17715;DHT22;8977;50.902;4.314;2023-07-02T00:53:00;20.30;99.90
17715;DHT22;8977;50.902;4.314;2023-07-02T00:55:27;20.30;99.90
17715;DHT22;8977;50.902;4.314;2023-07-02T00:57:54;20.30;99.90
17715;DHT22;8977;50.902;4.314;2023-07-02T01:00:22;20.30;99.90
17715;DHT22;8977;50.902;4.314;2023-07-02T01:02:55;20.40;99.90
17715;DHT22;8977;50.902;4.314;2023-07-02T01:05:25;20.40;99.90
17715;DHT22;8977;50.902;4.314;2023-07-02T01:08:01;20.40;99.90
17715;DHT22;8977;50.902;4.314;2023-07-02T01:10:28;20.40;99.90
17715;DHT22;8977;50.902;4.314;2023-07-02T01:12:57;20.40;99.90
17715;DHT22;8977;50.902;4.314;2023-07-02T01:15:26;20.30;99.90
17715;DHT22;8977;50.902;4.314;2023-07-02T01:17:55;20.40;99.90
17715;DHT22;8977;50.902;4.314;2023-07-02T01:20:24;20.40;99.90
17715;DHT22;8977;50.902;4.314;2023-07-02T01:22:53;20.50;99.90
17715;DHT22;8977;50.902;4.314;2023-07-02T01:25:19;20.50;99.90
17715;DHT22;8977;50.902;4.314;2023-07-02T01:27:50;20.50;99.90
17715;DHT22;8977;50.902;4.314;2023-07-02T01:30:17;20.50;99.90
17715;DHT22;8977;50.902;4.314;2023-07-02T01:32:44;20.30;99.90
17715;DHT22;8977;50.902;4.314;2023-07-02T01:35:10;20.30;99.90
17715;DHT22;8977;50.902;4.314;2023-07-02T01:37:39;20.30;99.90
17715;DHT22;8977;50.902;4.314;2023-07-02T01:40:06;20.30;99.90
17715;DHT22;8977;50.902;4.314;2023-07-02T01:42:34;20.40;99.90
17715;DHT22;8977;50.902;4.314;2023-07-02T01:45:01;20.40;99.90
17715;DHT22;8977;50.902;4.314;2023-07-02T01:47:28;20.30;99.90
17715;DHT22;8977;50.902;4.314;2023-07-02T01:49:55;20.40;99.90
17715;DHT22;8977;50.902;4.314;2023-07-02T01:52:22;20.40;99.90
17715;DHT22;8977;50.902;4.314;2023-07-02T01:54:50;20.40;99.90
17715;DHT22;8977;50.902;4.314;2023-07-02T01:57:18;20.40;99.90
17715;DHT22;8977;50.902;4.314;2023-07-02T01:59:44;20.40;99.90
17715;DHT22;8977;50.902;4.314;2023-07-02T02:02:11;20.40;99.90
17715;DHT22;8977;50.902;4.314;2023-07-02T02:04:38;20.40;99.90
17715;DHT22;8977;50.902;4.314;2023-07-02T02:07:05;20.30;99.90
17715;DHT22;8977;50.902;4.314;2023-07-02T02:09:32;20.30;99.90
17715;DHT22;8977;50.902;4.314;2023-07-02T02:12:00;20.30;99.90
17715;DHT22;8977;50.902;4.314;2023-07-02T02:14:27;20.30;99.90
17715;DHT22;8977;50.902;4.314;2023-07-02T02:16:54;20.30;99.90
17715;DHT22;8977;50.902;4.314;2023-07-02T02:19:21;20.40;99.90
17715;DHT22;8977;50.902;4.314;2023-07-02T02:21:48;20.40;99.90
17715;DHT22;8977;50.902;4.314;2023-07-02T02:24:14;20.40;99.90
17715;DHT22;8977;50.902;4.314;2023-07-02T02:26:41;20.30;99.90
17715;DHT22;8977;50.902;4.314;2023-07-02T02:29:10;20.30;99.90
17715;DHT22;8977;50.902;4.314;2023-07-02T02:31:36;20.40;99.90
17715;DHT22;8977;50.902;4.314;2023-07-02T02:34:03;20.40;99.90
17715;DHT22;8977;50.902;4.314;2023-07-02T02:36:30;20.40;99.90
17715;DHT22;8977;50.902;4.314;2023-07-02T02:38:58;20.40;99.90
17715;DHT22;8977;50.902;4.314;2023-07-02T02:41:24;20.30;99.90
17715;DHT22;8977;50.902;4.314;2023-07-02T02:43:51;20.30;99.90
17715;DHT22;8977;50.902;4.314;2023-07-02T02:46:21;20.30;99.90
17715;DHT22;8977;50.902;4.314;2023-07-02T02:48:48;20.30;99.90
17715;DHT22;8977;50.902;4.314;2023-07-02T02:51:15;20.30;99.90
17715;DHT22;8977;50.902;4.314;2023-07-02T02:53:42;20.30;99.90
17715;DHT22;8977;50.902;4.314;2023-07-02T02:56:09;20.40;99.90
17715;DHT22;8977;50.902;4.314;2023-07-02T02:58:36;20.30;99.90
17715;DHT22;8977;50.902;4.314;2023-07-02T03:01:03;20.30;99.90
17715;DHT22;8977;50.902;4.314;2023-07-02T03:03:38;20.30;99.90
17715;DHT22;8977;50.902;4.314;2023-07-02T03:06:06;20.40;99.90
17715;DHT22;8977;50.902;4.314;2023-07-02T03:08:33;20.30;99.90
17715;DHT22;8977;50.902;4.314;2023-07-02T03:11:00;20.30;99.90
17715;DHT22;8977;50.902;4.314;2023-07-02T03:13:26;20.40;99.90
17715;DHT22;8977;50.902;4.314;2023-07-02T03:15:53;20.40;99.90
17715;DHT22;8977;50.902;4.314;2023-07-02T03:18:20;20.40;99.90
17715;DHT22;8977;50.902;4.314;2023-07-02T03:20:48;20.30;99.90
17715;DHT22;8977;50.902;4.314;2023-07-02T03:23:15;20.30;99.90
17715;DHT22;8977;50.902;4.314;2023-07-02T03:25:42;20.30;99.90
17715;DHT22;8977;50.902;4.314;2023-07-02T03:28:09;20.30;99.90
17715;DHT22;8977;50.902;4.314;2023-07-02T03:30:36;20.30;99.90
17715;DHT22;8977;50.902;4.314;2023-07-02T03:33:02;20.30;99.90
17715;DHT22;8977;50.902;4.314;2023-07-02T03:35:29;20.30;99.90
17715;DHT22;8977;50.902;4.314;2023-07-02T03:37:57;20.30;99.90
17715;DHT22;8977;50.902;4.314;2023-07-02T03:40:24;20.30;99.90
17715;DHT22;8977;50.902;4.314;2023-07-02T03:42:51;20.30;99.90
17715;DHT22;8977;50.902;4.314;2023-07-02T03:45:18;20.30;99.90
17715;DHT22;8977;50.902;4.314;2023-07-02T03:47:45;20.30;99.90
17715;DHT22;8977;50.902;4.314;2023-07-02T03:50:12;20.30;99.90
17715;DHT22;8977;50.902;4.314;2023-07-02T03:52:39;20.30;99.90
17715;DHT22;8977;50.902;4.314;2023-07-02T03:55:08;20.30;99.90
17715;DHT22;8977;50.902;4.314;2023-07-02T03:57:35;20.30;99.90
17715;DHT22;8977;50.902;4.314;2023-07-02T04:00:02;20.30;99.90
17715;DHT22;8977;50.902;4.314;2023-07-02T04:02:31;20.20;99.90
17715;DHT22;8977;50.902;4.314;2023-07-02T04:04:58;20.30;99.90
17715;DHT22;8977;50.902;4.314;2023-07-02T04:07:24;20.20;99.90
17715;DHT22;8977;50.902;4.314;2023-07-02T04:09:51;20.20;99.90
17715;DHT22;8977;50.902;4.314;2023-07-02T04:12:19;20.30;99.90
17715;DHT22;8977;50.902;4.314;2023-07-02T04:14:46;20.30;99.90
17715;DHT22;8977;50.902;4.314;2023-07-02T04:17:13;20.20;99.90
17715;DHT22;8977;50.902;4.314;2023-07-02T04:19:40;20.20;99.90
17715;DHT22;8977;50.902;4.314;2023-07-02T04:22:07;20.30;99.90
17715;DHT22;8977;50.902;4.314;2023-07-02T04:24:34;20.30;99.90
17715;DHT22;8977;50.902;4.314;2023-07-02T04:27:01;20.30;99.90
17715;DHT22;8977;50.902;4.314;2023-07-02T04:29:29;20.30;99.90
17715;DHT22;8977;50.902;4.314;2023-07-02T04:31:56;20.30;99.90
17715;DHT22;8977;50.902;4.314;2023-07-02T04:34:22;20.30;99.90
17715;DHT22;8977;50.902;4.314;2023-07-02T04:36:49;20.30;99.90
17715;DHT22;8977;50.902;4.314;2023-07-02T04:39:16;20.30;99.90
17715;DHT22;8977;50.902;4.314;2023-07-02T04:41:43;20.30;99.90
17715;DHT22;8977;50.902;4.314;2023-07-02T04:44:10;20.30;99.90
17715;DHT22;8977;50.902;4.314;2023-07-02T04:46:38;20.30;99.90
17715;DHT22;8977;50.902;4.314;2023-07-02T04:49:05;20.30;99.90
17715;DHT22;8977;50.902;4.314;2023-07-02T04:51:32;20.30;99.90
17715;DHT22;8977;50.902;4.314;2023-07-02T04:53:59;20.30;99.90
17715;DHT22;8977;50.902;4.314;2023-07-02T04:56:26;20.30;99.90
17715;DHT22;8977;50.902;4.314;2023-07-02T04:58:53;20.30;99.90
17715;DHT22;8977;50.902;4.314;2023-07-02T05:01:19;20.40;99.90
17715;DHT22;8977;50.902;4.314;2023-07-02T05:03:48;20.30;99.90
17715;DHT22;8977;50.902;4.314;2023-07-02T05:06:15;20.30;99.90
17715;DHT22;8977;50.902;4.314;2023-07-02T05:08:41;20.30;99.90
17715;DHT22;8977;50.902;4.314;2023-07-02T05:11:08;20.30;99.90
17715;DHT22;8977;50.902;4.314;2023-07-02T05:13:35;20.30;99.90
17715;DHT22;8977;50.902;4.314;2023-07-02T05:16:02;20.30;99.90
17715;DHT22;8977;50.902;4.314;2023-07-02T05:18:29;20.20;99.90
17715;DHT22;8977;50.902;4.314;2023-07-02T05:20:57;20.20;99.90
17715;DHT22;8977;50.902;4.314;2023-07-02T05:23:24;20.30;99.90
17715;DHT22;8977;50.902;4.314;2023-07-02T05:25:51;20.20;99.90
17715;DHT22;8977;50.902;4.314;2023-07-02T05:28:18;20.10;99.90
17715;DHT22;8977;50.902;4.314;2023-07-02T05:30:44;20.00;99.90
17715;DHT22;8977;50.902;4.314;2023-07-02T05:33:11;20.10;99.90
17715;DHT22;8977;50.902;4.314;2023-07-02T05:35:38;20.00;99.90
17715;DHT22;8977;50.902;4.314;2023-07-02T05:38:07;20.10;99.90
17715;DHT22;8977;50.902;4.314;2023-07-02T05:40:33;20.10;99.90
17715;DHT22;8977;50.902;4.314;2023-07-02T05:43:00;20.20;99.90
17715;DHT22;8977;50.902;4.314;2023-07-02T05:45:27;20.20;99.90
17715;DHT22;8977;50.902;4.314;2023-07-02T05:47:54;20.10;99.90
17715;DHT22;8977;50.902;4.314;2023-07-02T05:50:21;20.20;99.90
17715;DHT22;8977;50.902;4.314;2023-07-02T05:52:48;20.10;99.90
17715;DHT22;8977;50.902;4.314;2023-07-02T05:55:17;20.10;99.90
17715;DHT22;8977;50.902;4.314;2023-07-02T05:57:45;20.10;99.90
17715;DHT22;8977;50.902;4.314;2023-07-02T06:00:14;20.10;99.90
17715;DHT22;8977;50.902;4.314;2023-07-02T06:02:41;20.10;99.90
17715;DHT22;8977;50.902;4.314;2023-07-02T06:05:08;20.10;99.90
17715;DHT22;8977;50.902;4.314;2023-07-02T06:07:35;20.20;99.90
17715;DHT22;8977;50.902;4.314;2023-07-02T06:10:02;20.20;99.90
17715;DHT22;8977;50.902;4.314;2023-07-02T06:12:30;20.20;99.90
17715;DHT22;8977;50.902;4.314;2023-07-02T06:14:57;20.20;99.90
17715;DHT22;8977;50.902;4.314;2023-07-02T06:17:24;20.30;99.90
17715;DHT22;8977;50.902;4.314;2023-07-02T06:19:51;20.20;99.90
17715;DHT22;8977;50.902;4.314;2023-07-02T06:22:18;20.10;99.90
17715;DHT22;8977;50.902;4.314;2023-07-02T06:24:45;20.20;99.90
17715;DHT22;8977;50.902;4.314;2023-07-02T06:27:12;20.10;99.90
17715;DHT22;8977;50.902;4.314;2023-07-02T06:29:40;20.20;99.90
17715;DHT22;8977;50.902;4.314;2023-07-02T06:32:07;20.30;99.90
17715;DHT22;8977;50.902;4.314;2023-07-02T06:34:33;20.20;99.90
17715;DHT22;8977;50.902;4.314;2023-07-02T06:37:02;20.20;99.90
17715;DHT22;8977;50.902;4.314;2023-07-02T06:39:28;20.30;99.90
17715;DHT22;8977;50.902;4.314;2023-07-02T06:41:55;20.30;99.90
17715;DHT22;8977;50.902;4.314;2023-07-02T06:44:22;20.40;99.90
17715;DHT22;8977;50.902;4.314;2023-07-02T06:46:50;20.50;99.90
17715;DHT22;8977;50.902;4.314;2023-07-02T06:49:17;20.40;99.90
17715;DHT22;8977;50.902;4.314;2023-07-02T06:51:44;20.40;99.90
17715;DHT22;8977;50.902;4.314;2023-07-02T06:54:11;20.40;99.90
17715;DHT22;8977;50.902;4.314;2023-07-02T06:56:38;20.40;99.90
17715;DHT22;8977;50.902;4.314;2023-07-02T06:59:05;20.40;99.90
17715;DHT22;8977;50.902;4.314;2023-07-02T07:01:32;20.50;99.90
17715;DHT22;8977;50.902;4.314;2023-07-02T07:04:00;20.50;99.90
17715;DHT22;8977;50.902;4.314;2023-07-02T07:06:27;20.50;99.90
17715;DHT22;8977;50.902;4.314;2023-07-02T07:08:54;20.60;99.90
17715;DHT22;8977;50.902;4.314;2023-07-02T07:11:21;20.60;99.90
17715;DHT22;8977;50.902;4.314;2023-07-02T07:13:48;20.60;99.90
17715;DHT22;8977;50.902;4.314;2023-07-02T07:16:14;20.60;99.90
17715;DHT22;8977;50.902;4.314;2023-07-02T07:18:43;20.60;99.90
17715;DHT22;8977;50.902;4.314;2023-07-02T07:21:12;20.60;99.90
17715;DHT22;8977;50.902;4.314;2023-07-02T07:23:39;20.60;99.90
17715;DHT22;8977;50.902;4.314;2023-07-02T07:26:06;20.60;99.90
17715;DHT22;8977;50.902;4.314;2023-07-02T07:28:33;20.60;99.90
17715;DHT22;8977;50.902;4.314;2023-07-02T07:31:00;20.60;99.90
17715;DHT22;8977;50.902;4.314;2023-07-02T07:33:26;20.70;99.90
17715;DHT22;8977;50.902;4.314;2023-07-02T07:35:53;20.70;99.90
17715;DHT22;8977;50.902;4.314;2023-07-02T07:38:21;20.70;99.90
17715;DHT22;8977;50.902;4.314;2023-07-02T07:40:48;20.80;99.90
17715;DHT22;8977;50.902;4.314;2023-07-02T07:43:15;20.80;99.90
17715;DHT22;8977;50.902;4.314;2023-07-02T07:45:42;20.70;99.90
17715;DHT22;8977;50.902;4.314;2023-07-02T07:48:09;20.70;99.90
17715;DHT22;8977;50.902;4.314;2023-07-02T07:50:35;20.70;99.90
17715;DHT22;8977;50.902;4.314;2023-07-02T07:53:02;20.80;99.90
17715;DHT22;8977;50.902;4.314;2023-07-02T07:55:30;20.80;99.90
17715;DHT22;8977;50.902;4.314;2023-07-02T07:57:57;20.80;99.90
17715;DHT22;8977;50.902;4.314;2023-07-02T08:00:24;20.90;99.90
17715;DHT22;8977;50.902;4.314;2023-07-02T08:02:52;20.90;99.90
17715;DHT22;8977;50.902;4.314;2023-07-02T08:05:21;20.90;99.90
17715;DHT22;8977;50.902;4.314;2023-07-02T08:07:48;20.90;99.90
17715;DHT22;8977;50.902;4.314;2023-07-02T08:10:15;20.90;99.90
17715;DHT22;8977;50.902;4.314;2023-07-02T08:12:43;21.00;99.90
17715;DHT22;8977;50.902;4.314;2023-07-02T08:15:11;21.00;99.90
17715;DHT22;8977;50.902;4.314;2023-07-02T08:17:38;21.00;99.90
17715;DHT22;8977;50.902;4.314;2023-07-02T08:20:05;21.00;99.90
17715;DHT22;8977;50.902;4.314;2023-07-02T08:22:35;21.10;99.90
17715;DHT22;8977;50.902;4.314;2023-07-02T08:25:02;21.10;99.90
17715;DHT22;8977;50.902;4.314;2023-07-02T08:27:30;21.20;99.90
17715;DHT22;8977;50.902;4.314;2023-07-02T08:29:58;21.10;99.90
17715;DHT22;8977;50.902;4.314;2023-07-02T08:32:25;21.20;99.90
17715;DHT22;8977;50.902;4.314;2023-07-02T08:34:51;21.20;99.90
17715;DHT22;8977;50.902;4.314;2023-07-02T08:37:20;21.20;99.90
17715;DHT22;8977;50.902;4.314;2023-07-02T08:39:48;21.20;99.90
17715;DHT22;8977;50.902;4.314;2023-07-02T08:42:15;21.20;99.90
17715;DHT22;8977;50.902;4.314;2023-07-02T08:44:45;21.20;99.90
17715;DHT22;8977;50.902;4.314;2023-07-02T08:47:15;21.20;99.90
17715;DHT22;8977;50.902;4.314;2023-07-02T08:49:42;21.30;99.90
17715;DHT22;8977;50.902;4.314;2023-07-02T08:52:09;21.30;99.90
17715;DHT22;8977;50.902;4.314;2023-07-02T08:54:36;21.30;99.90
17715;DHT22;8977;50.902;4.314;2023-07-02T08:57:04;21.30;99.90
17715;DHT22;8977;50.902;4.314;2023-07-02T08:59:31;21.30;99.90
17715;DHT22;8977;50.902;4.314;2023-07-02T09:01:58;21.30;99.90
17715;DHT22;8977;50.902;4.314;2023-07-02T09:04:27;21.30;99.90
17715;DHT22;8977;50.902;4.314;2023-07-02T09:07:03;21.20;99.90
17715;DHT22;8977;50.902;4.314;2023-07-02T09:09:31;21.20;99.90
17715;DHT22;8977;50.902;4.314;2023-07-02T09:11:58;21.20;99.90
17715;DHT22;8977;50.902;4.314;2023-07-02T09:14:28;21.20;99.90
17715;DHT22;8977;50.902;4.314;2023-07-02T09:17:06;21.20;99.90
17715;DHT22;8977;50.902;4.314;2023-07-02T09:19:36;21.20;99.90
17715;DHT22;8977;50.902;4.314;2023-07-02T09:22:03;21.20;99.90
17715;DHT22;8977;50.902;4.314;2023-07-02T09:24:31;21.20;99.90
17715;DHT22;8977;50.902;4.314;2023-07-02T09:27:00;21.30;99.90
17715;DHT22;8977;50.902;4.314;2023-07-02T09:29:29;21.30;99.90
17715;DHT22;8977;50.902;4.314;2023-07-02T09:31:57;21.30;99.90
17715;DHT22;8977;50.902;4.314;2023-07-02T09:34:28;21.30;99.90
17715;DHT22;8977;50.902;4.314;2023-07-02T09:36:57;21.40;99.90
17715;DHT22;8977;50.902;4.314;2023-07-02T09:39:29;21.40;99.90
17715;DHT22;8977;50.902;4.314;2023-07-02T09:41:57;21.40;99.90
17715;DHT22;8977;50.902;4.314;2023-07-02T09:44:27;21.30;99.90
17715;DHT22;8977;50.902;4.314;2023-07-02T09:46:59;21.30;99.90
17715;DHT22;8977;50.902;4.314;2023-07-02T09:49:32;21.30;99.90
17715;DHT22;8977;50.902;4.314;2023-07-02T09:52:01;21.30;99.90
17715;DHT22;8977;50.902;4.314;2023-07-02T09:54:29;21.40;99.90
17715;DHT22;8977;50.902;4.314;2023-07-02T09:56:56;21.30;99.90
17715;DHT22;8977;50.902;4.314;2023-07-02T09:59:23;21.30;99.90
17715;DHT22;8977;50.902;4.314;2023-07-02T10:01:50;21.30;99.90
17715;DHT22;8977;50.902;4.314;2023-07-02T10:04:18;21.30;99.90
17715;DHT22;8977;50.902;4.314;2023-07-02T10:06:47;21.30;99.90
17715;DHT22;8977;50.902;4.314;2023-07-02T10:09:15;21.40;99.90
17715;DHT22;8977;50.902;4.314;2023-07-02T10:11:42;21.50;99.90
17715;DHT22;8977;50.902;4.314;2023-07-02T10:14:09;21.50;99.90
17715;DHT22;8977;50.902;4.314;2023-07-02T10:16:49;21.50;99.90
17715;DHT22;8977;50.902;4.314;2023-07-02T10:19:16;21.60;99.90
17715;DHT22;8977;50.902;4.314;2023-07-02T10:21:43;21.50;99.90
17715;DHT22;8977;50.902;4.314;2023-07-02T10:24:13;21.60;99.90
17715;DHT22;8977;50.902;4.314;2023-07-02T10:26:53;21.50;99.90
17715;DHT22;8977;50.902;4.314;2023-07-02T10:29:21;21.60;99.90
17715;DHT22;8977;50.902;4.314;2023-07-02T10:31:48;21.60;99.90
17715;DHT22;8977;50.902;4.314;2023-07-02T10:34:16;21.60;99.90
17715;DHT22;8977;50.902;4.314;2023-07-02T10:36:42;21.60;99.90
17715;DHT22;8977;50.902;4.314;2023-07-02T10:39:09;21.60;99.90
17715;DHT22;8977;50.902;4.314;2023-07-02T10:41:36;21.50;99.90
17715;DHT22;8977;50.902;4.314;2023-07-02T10:44:08;21.60;99.90
17715;DHT22;8977;50.902;4.314;2023-07-02T10:46:43;21.60;99.90
17715;DHT22;8977;50.902;4.314;2023-07-02T10:49:10;21.70;99.90
17715;DHT22;8977;50.902;4.314;2023-07-02T10:51:37;21.70;99.90
17715;DHT22;8977;50.902;4.314;2023-07-02T10:54:04;21.80;99.90
17715;DHT22;8977;50.902;4.314;2023-07-02T10:56:31;21.80;99.90
17715;DHT22;8977;50.902;4.314;2023-07-02T10:58:58;21.80;99.90
17715;DHT22;8977;50.902;4.314;2023-07-02T11:01:28;21.80;99.90
17715;DHT22;8977;50.902;4.314;2023-07-02T11:03:56;21.80;99.90
17715;DHT22;8977;50.902;4.314;2023-07-02T11:06:24;21.80;99.90
17715;DHT22;8977;50.902;4.314;2023-07-02T11:08:51;21.80;99.90
17715;DHT22;8977;50.902;4.314;2023-07-02T11:11:18;21.80;99.90
17715;DHT22;8977;50.902;4.314;2023-07-02T11:13:45;21.80;99.90
17715;DHT22;8977;50.902;4.314;2023-07-02T11:16:24;21.90;99.90
17715;DHT22;8977;50.902;4.314;2023-07-02T11:19:05;22.00;99.90
17715;DHT22;8977;50.902;4.314;2023-07-02T11:21:32;21.90;99.90
17715;DHT22;8977;50.902;4.314;2023-07-02T11:24:02;21.90;99.90
17715;DHT22;8977;50.902;4.314;2023-07-02T11:26:35;22.00;99.90
17715;DHT22;8977;50.902;4.314;2023-07-02T11:29:02;22.10;99.90
17715;DHT22;8977;50.902;4.314;2023-07-02T11:31:29;22.20;99.90
17715;DHT22;8977;50.902;4.314;2023-07-02T11:33:57;22.30;99.40
17715;DHT22;8977;50.902;4.314;2023-07-02T11:36:24;22.30;99.40
17715;DHT22;8977;50.902;4.314;2023-07-02T11:38:51;22.40;99.20
17715;DHT22;8977;50.902;4.314;2023-07-02T11:41:19;22.30;99.50
17715;DHT22;8977;50.902;4.314;2023-07-02T11:43:46;22.30;99.50
17715;DHT22;8977;50.902;4.314;2023-07-02T11:46:13;22.30;99.70
17715;DHT22;8977;50.902;4.314;2023-07-02T11:48:40;22.40;99.30
17715;DHT22;8977;50.902;4.314;2023-07-02T11:51:09;22.40;99.30
17715;DHT22;8977;50.902;4.314;2023-07-02T11:53:36;22.30;99.40
17715;DHT22;8977;50.902;4.314;2023-07-02T11:56:03;22.30;99.60
17715;DHT22;8977;50.902;4.314;2023-07-02T11:58:29;22.30;99.80
17715;DHT22;8977;50.902;4.314;2023-07-02T12:00:56;22.40;99.80
17715;DHT22;8977;50.902;4.314;2023-07-02T12:03:23;22.40;99.90
17715;DHT22;8977;50.902;4.314;2023-07-02T12:05:50;22.50;99.40
17715;DHT22;8977;50.902;4.314;2023-07-02T12:08:18;22.50;99.40
17715;DHT22;8977;50.902;4.314;2023-07-02T12:10:45;22.50;99.50
17715;DHT22;8977;50.902;4.314;2023-07-02T12:13:12;22.60;98.70
17715;DHT22;8977;50.902;4.314;2023-07-02T12:15:38;22.50;99.20
17715;DHT22;8977;50.902;4.314;2023-07-02T12:18:07;22.50;98.90
17715;DHT22;8977;50.902;4.314;2023-07-02T12:20:35;22.60;99.10
17715;DHT22;8977;50.902;4.314;2023-07-02T12:23:02;22.60;99.20
17715;DHT22;8977;50.902;4.314;2023-07-02T12:25:30;22.70;98.60
17715;DHT22;8977;50.902;4.314;2023-07-02T12:27:57;22.70;98.80
17715;DHT22;8977;50.902;4.314;2023-07-02T12:30:24;22.70;98.50
17715;DHT22;8977;50.902;4.314;2023-07-02T12:32:51;22.70;98.40
17715;DHT22;8977;50.902;4.314;2023-07-02T12:35:17;22.70;98.80
17715;DHT22;8977;50.902;4.314;2023-07-02T12:37:45;22.80;98.40
17715;DHT22;8977;50.902;4.314;2023-07-02T12:40:12;22.80;97.90
17715;DHT22;8977;50.902;4.314;2023-07-02T12:42:41;22.80;98.30
17715;DHT22;8977;50.902;4.314;2023-07-02T12:45:10;22.90;98.70
17715;DHT22;8977;50.902;4.314;2023-07-02T12:47:37;23.00;99.00
17715;DHT22;8977;50.902;4.314;2023-07-02T12:50:05;23.00;98.50
17715;DHT22;8977;50.902;4.314;2023-07-02T12:52:32;23.00;97.70
17715;DHT22;8977;50.902;4.314;2023-07-02T12:54:59;23.00;97.90
17715;DHT22;8977;50.902;4.314;2023-07-02T12:57:26;23.00;98.30
17715;DHT22;8977;50.902;4.314;2023-07-02T12:59:55;23.10;98.20
17715;DHT22;8977;50.902;4.314;2023-07-02T13:02:23;23.20;97.50
17715;DHT22;8977;50.902;4.314;2023-07-02T13:04:50;23.40;97.20
17715;DHT22;8977;50.902;4.314;2023-07-02T13:07:17;23.40;97.40
17715;DHT22;8977;50.902;4.314;2023-07-02T13:09:44;23.50;97.80
17715;DHT22;8977;50.902;4.314;2023-07-02T13:12:11;23.50;97.40
17715;DHT22;8977;50.902;4.314;2023-07-02T13:14:38;23.60;97.60
17715;DHT22;8977;50.902;4.314;2023-07-02T13:17:06;23.60;97.30
17715;DHT22;8977;50.902;4.314;2023-07-02T13:19:34;23.70;96.90
17715;DHT22;8977;50.902;4.314;2023-07-02T13:22:01;23.70;97.30
17715;DHT22;8977;50.902;4.314;2023-07-02T13:24:33;23.80;97.00
17715;DHT22;8977;50.902;4.314;2023-07-02T13:27:02;24.00;96.50
17715;DHT22;8977;50.902;4.314;2023-07-02T13:29:30;24.00;96.10
17715;DHT22;8977;50.902;4.314;2023-07-02T13:31:57;24.00;96.20
17715;DHT22;8977;50.902;4.314;2023-07-02T13:34:26;24.00;95.90
17715;DHT22;8977;50.902;4.314;2023-07-02T13:36:53;24.00;96.30
17715;DHT22;8977;50.902;4.314;2023-07-02T13:39:20;24.20;96.30
17715;DHT22;8977;50.902;4.314;2023-07-02T13:41:47;24.20;95.90
17715;DHT22;8977;50.902;4.314;2023-07-02T13:44:14;24.10;95.90
17715;DHT22;8977;50.902;4.314;2023-07-02T13:46:42;24.10;96.40
17715;DHT22;8977;50.902;4.314;2023-07-02T13:49:09;24.00;96.40
17715;DHT22;8977;50.902;4.314;2023-07-02T13:51:37;24.00;96.50
17715;DHT22;8977;50.902;4.314;2023-07-02T13:54:04;23.90;96.80
17715;DHT22;8977;50.902;4.314;2023-07-02T13:56:31;23.80;97.00
17715;DHT22;8977;50.902;4.314;2023-07-02T13:59:03;23.90;97.10
17715;DHT22;8977;50.902;4.314;2023-07-02T14:01:31;24.00;96.60
17715;DHT22;8977;50.902;4.314;2023-07-02T14:03:58;24.10;96.30
17715;DHT22;8977;50.902;4.314;2023-07-02T14:06:25;24.10;96.30
17715;DHT22;8977;50.902;4.314;2023-07-02T14:08:52;24.00;96.70
17715;DHT22;8977;50.902;4.314;2023-07-02T14:11:19;24.00;96.40
17715;DHT22;8977;50.902;4.314;2023-07-02T14:13:46;24.00;96.70
17715;DHT22;8977;50.902;4.314;2023-07-02T14:16:15;24.00;96.40
17715;DHT22;8977;50.902;4.314;2023-07-02T14:18:41;24.10;96.10
17715;DHT22;8977;50.902;4.314;2023-07-02T14:21:09;24.10;95.90
17715;DHT22;8977;50.902;4.314;2023-07-02T14:23:36;24.00;96.30
17715;DHT22;8977;50.902;4.314;2023-07-02T14:26:02;23.90;96.60
17715;DHT22;8977;50.902;4.314;2023-07-02T14:28:29;23.80;96.60
17715;DHT22;8977;50.902;4.314;2023-07-02T14:30:57;23.90;96.40
17715;DHT22;8977;50.902;4.314;2023-07-02T14:33:27;23.90;96.60
17715;DHT22;8977;50.902;4.314;2023-07-02T14:35:54;23.90;96.00
17715;DHT22;8977;50.902;4.314;2023-07-02T14:38:21;23.90;96.10
17715;DHT22;8977;50.902;4.314;2023-07-02T14:40:48;23.90;96.20
17715;DHT22;8977;50.902;4.314;2023-07-02T14:43:15;23.80;96.50
17715;DHT22;8977;50.902;4.314;2023-07-02T14:45:45;23.90;96.10
17715;DHT22;8977;50.902;4.314;2023-07-02T14:48:12;23.90;96.10
17715;DHT22;8977;50.902;4.314;2023-07-02T14:50:45;24.00;95.80
17715;DHT22;8977;50.902;4.314;2023-07-02T14:53:13;24.00;94.90
17715;DHT22;8977;50.902;4.314;2023-07-02T14:55:40;23.90;95.30
17715;DHT22;8977;50.902;4.314;2023-07-02T14:58:07;23.90;95.60
17715;DHT22;8977;50.902;4.314;2023-07-02T15:00:36;23.90;96.00
17715;DHT22;8977;50.902;4.314;2023-07-02T15:03:08;23.80;96.20
17715;DHT22;8977;50.902;4.314;2023-07-02T15:05:35;23.80;95.60
17715;DHT22;8977;50.902;4.314;2023-07-02T15:08:04;23.90;95.30
17715;DHT22;8977;50.902;4.314;2023-07-02T15:10:31;23.80;95.60
17715;DHT22;8977;50.902;4.314;2023-07-02T15:12:57;23.90;95.50
17715;DHT22;8977;50.902;4.314;2023-07-02T15:15:24;24.00;95.40
17715;DHT22;8977;50.902;4.314;2023-07-02T15:17:51;24.00;95.50
17715;DHT22;8977;50.902;4.314;2023-07-02T15:20:18;24.00;95.30
17715;DHT22;8977;50.902;4.314;2023-07-02T15:22:45;24.00;95.60
17715;DHT22;8977;50.902;4.314;2023-07-02T15:25:13;24.10;95.70
17715;DHT22;8977;50.902;4.314;2023-07-02T15:27:40;24.20;95.20
17715;DHT22;8977;50.902;4.314;2023-07-02T15:30:07;24.30;95.20
17715;DHT22;8977;50.902;4.314;2023-07-02T15:32:34;24.20;95.10
17715;DHT22;8977;50.902;4.314;2023-07-02T15:35:01;24.20;95.20
17715;DHT22;8977;50.902;4.314;2023-07-02T15:37:28;24.10;95.40
17715;DHT22;8977;50.902;4.314;2023-07-02T15:39:55;24.10;95.60
17715;DHT22;8977;50.902;4.314;2023-07-02T15:42:23;24.20;95.10
17715;DHT22;8977;50.902;4.314;2023-07-02T15:44:55;24.20;95.20
17715;DHT22;8977;50.902;4.314;2023-07-02T15:47:22;24.20;95.30